createdAt,value
2018-02-02T00:02:12.354Z,2.90
2018-02-02T00:04:40.017Z,2.80
2018-02-02T00:07:07.696Z,2.80
2018-02-02T00:09:35.397Z,2.80
2018-02-02T00:12:03.058Z,2.80
2018-02-02T00:14:30.741Z,2.80
2018-02-02T00:16:59.170Z,2.80
2018-02-02T00:19:26.788Z,2.80
2018-02-02T00:21:55.221Z,2.80
2018-02-02T00:24:22.934Z,2.80
2018-02-02T00:26:50.658Z,2.70
2018-02-02T00:29:18.360Z,2.70
2018-02-02T00:31:46.041Z,2.60
2018-02-02T00:34:13.789Z,2.50
2018-02-02T00:36:41.468Z,2.50
2018-02-02T00:39:09.134Z,2.50
2018-02-02T00:41:36.770Z,2.40
2018-02-02T00:44:04.450Z,2.40
2018-02-02T00:46:32.121Z,2.40
2018-02-02T00:48:59.806Z,2.10
2018-02-02T00:51:33.244Z,2.20
2018-02-02T00:54:01.677Z,2.20
2018-02-02T00:56:29.351Z,2.20
2018-02-02T00:58:56.987Z,2.20
2018-02-02T01:01:24.637Z,2.20
2018-02-02T01:03:52.290Z,2.10
2018-02-02T01:06:19.947Z,2.00
2018-02-02T01:08:47.613Z,1.90
2018-02-02T01:11:15.287Z,1.90
2018-02-02T01:13:42.971Z,1.80
2018-02-02T01:16:10.638Z,1.70
2018-02-02T01:18:38.269Z,1.70
2018-02-02T01:21:05.959Z,1.60
2018-02-02T01:23:33.581Z,1.50
2018-02-02T01:26:01.259Z,1.40
2018-02-02T01:28:28.896Z,1.40
2018-02-02T01:30:57.354Z,1.40
2018-02-02T01:33:25.820Z,1.30
2018-02-02T01:35:53.506Z,1.30
2018-02-02T01:38:21.190Z,1.30
2018-02-02T01:40:48.858Z,1.30
2018-02-02T01:43:16.555Z,1.30
2018-02-02T01:45:44.221Z,1.30
2018-02-02T01:48:20.315Z,1.20
2018-02-02T01:50:50.565Z,1.10
2018-02-02T01:53:18.251Z,1.00
2018-02-02T01:55:45.938Z,1.00
2018-02-02T01:58:13.590Z,0.90
2018-02-02T02:00:41.281Z,0.80
2018-02-02T02:03:09.700Z,0.80
2018-02-02T02:05:37.366Z,0.70
2018-02-02T02:08:05.044Z,0.80
2018-02-02T02:10:33.502Z,0.70
2018-02-02T02:13:01.161Z,0.70
2018-02-02T02:15:28.841Z,0.70
2018-02-02T02:17:56.521Z,0.60
2018-02-02T02:20:25.205Z,0.50
2018-02-02T02:22:52.847Z,0.50
2018-02-02T02:25:20.494Z,0.40
2018-02-02T02:27:48.147Z,0.50
2018-02-02T02:30:15.848Z,0.40
2018-02-02T02:32:43.507Z,0.50
2018-02-02T02:35:11.146Z,0.40
2018-02-02T02:37:38.818Z,0.40
2018-02-02T02:40:06.477Z,0.40
2018-02-02T02:42:34.099Z,0.40
2018-02-02T02:45:02.538Z,0.40
2018-02-02T02:47:30.219Z,0.40
2018-02-02T02:49:57.871Z,0.40
2018-02-02T02:52:25.547Z,0.40
2018-02-02T02:54:53.221Z,0.40
2018-02-02T02:57:21.645Z,0.40
2018-02-02T02:59:49.309Z,0.40
2018-02-02T03:02:17.070Z,0.40
2018-02-02T03:04:44.728Z,0.40
2018-02-02T03:07:12.411Z,0.40
2018-02-02T03:09:40.057Z,0.40
2018-02-02T03:12:07.701Z,0.40
2018-02-02T03:14:35.378Z,0.40
2018-02-02T03:17:03.027Z,0.50
2018-02-02T03:19:30.700Z,0.40
2018-02-02T03:21:58.381Z,0.40
2018-02-02T03:24:26.024Z,0.40
2018-02-02T03:26:53.673Z,0.40
2018-02-02T03:29:21.311Z,0.40
2018-02-02T03:31:48.990Z,0.50
2018-02-02T03:34:16.673Z,0.60
2018-02-02T03:36:44.318Z,0.70
2018-02-02T03:39:11.998Z,0.70
2018-02-02T03:41:39.633Z,0.80
2018-02-02T03:44:07.309Z,0.80
2018-02-02T03:46:34.933Z,0.70
2018-02-02T03:49:03.341Z,0.70
2018-02-02T03:51:31.000Z,0.70
2018-02-02T03:53:58.628Z,0.60
2018-02-02T03:56:26.310Z,0.50
2018-02-02T03:58:54.719Z,0.50
2018-02-02T04:01:22.366Z,0.50
2018-02-02T04:03:50.051Z,0.50
2018-02-02T04:06:17.701Z,0.40
2018-02-02T04:08:45.364Z,0.40
2018-02-02T04:11:13.006Z,0.40
2018-02-02T04:13:41.432Z,0.40
2018-02-02T04:16:09.100Z,0.40
2018-02-02T04:18:36.771Z,0.30
2018-02-02T04:21:04.412Z,0.40
2018-02-02T04:23:32.077Z,0.40
2018-02-02T04:25:59.797Z,0.30
2018-02-02T04:28:27.483Z,0.40
2018-02-02T04:30:55.111Z,0.40
2018-02-02T04:33:23.541Z,0.30
2018-02-02T04:35:51.224Z,0.30
2018-02-02T04:38:18.898Z,0.30
2018-02-02T04:40:46.533Z,0.30
2018-02-02T04:43:14.188Z,0.30
2018-02-02T04:45:41.845Z,0.30
2018-02-02T04:48:09.538Z,0.30
2018-02-02T04:50:37.226Z,0.20
2018-02-02T04:53:05.682Z,0.20
2018-02-02T04:55:33.389Z,0.10
2018-02-02T04:58:01.066Z,0.20
2018-02-02T05:00:28.723Z,0.20
2018-02-02T05:02:56.361Z,0.20
2018-02-02T05:05:24.853Z,0.20
2018-02-02T05:07:52.479Z,0.20
2018-02-02T05:10:20.159Z,0.20
2018-02-02T05:12:48.036Z,0.10
2018-02-02T05:15:16.460Z,0.00
2018-02-02T05:17:44.146Z,0.00
2018-02-02T05:20:11.832Z,0.00
2018-02-02T05:22:40.289Z,0.00
2018-02-02T05:25:07.939Z,0.00
2018-02-02T05:27:35.596Z,-0.10
2018-02-02T05:30:03.271Z,-0.10
2018-02-02T05:32:30.908Z,-0.20
2018-02-02T05:34:58.581Z,-0.10
2018-02-02T05:37:26.250Z,-0.20
2018-02-02T05:39:53.932Z,-0.10
2018-02-02T05:42:21.585Z,-0.10
2018-02-02T05:44:49.244Z,-0.10
2018-02-02T05:47:16.928Z,-0.10
2018-02-02T05:49:45.370Z,-0.20
2018-02-02T05:52:13.060Z,-0.20
2018-02-02T05:54:41.485Z,-0.20
2018-02-02T05:57:09.209Z,-0.20
2018-02-02T05:59:37.635Z,-0.30
2018-02-02T06:02:05.289Z,-0.30
2018-02-02T06:04:32.975Z,-0.30
2018-02-02T06:07:00.656Z,-0.30
2018-02-02T06:09:28.324Z,-0.30
2018-02-02T06:11:55.969Z,-0.30
2018-02-02T06:14:23.631Z,-0.30
2018-02-02T06:16:51.271Z,-0.30
2018-02-02T06:19:30.909Z,-0.30
2018-02-02T06:21:58.618Z,-0.30
2018-02-02T06:24:26.343Z,-0.30
2018-02-02T06:26:54.113Z,-0.30
2018-02-02T06:29:21.850Z,-0.30
2018-02-02T06:31:49.577Z,-0.30
2018-02-02T06:34:17.387Z,-0.30
2018-02-02T06:36:45.165Z,-0.30
2018-02-02T06:39:12.871Z,-0.40
2018-02-02T06:41:41.392Z,-0.30
2018-02-02T06:44:09.172Z,-0.40
2018-02-02T06:46:36.922Z,-0.30
2018-02-02T06:49:04.693Z,-0.30
2018-02-02T06:51:32.425Z,-0.40
2018-02-02T06:54:00.131Z,-0.40
2018-02-02T06:56:27.798Z,-0.40
2018-02-02T06:58:55.491Z,-0.40
2018-02-02T07:01:23.181Z,-0.50
2018-02-02T07:03:50.829Z,-0.40
2018-02-02T07:06:18.506Z,-0.50
2018-02-02T07:08:46.260Z,-0.50
2018-02-02T07:11:14.735Z,-0.50
2018-02-02T07:13:42.412Z,-0.50
2018-02-02T07:16:10.088Z,-0.30
2018-02-02T07:18:37.772Z,-0.30
2018-02-02T07:21:05.490Z,-0.20
2018-02-02T07:23:33.177Z,-0.10
2018-02-02T07:26:00.854Z,0.00
2018-02-02T07:28:28.528Z,0.10
2018-02-02T07:30:56.279Z,0.30
2018-02-02T07:33:23.957Z,0.40
2018-02-02T07:35:51.599Z,0.50
2018-02-02T07:38:19.231Z,0.60
2018-02-02T07:40:46.918Z,0.80
2018-02-02T07:43:14.646Z,1.00
2018-02-02T07:45:43.154Z,1.30
2018-02-02T07:48:10.798Z,1.30
2018-02-02T07:50:38.489Z,1.50
2018-02-02T07:53:06.134Z,1.60
2018-02-02T07:55:33.816Z,1.70
2018-02-02T07:58:01.495Z,1.90
2018-02-02T08:03:34.019Z,2.20
2018-02-02T08:06:01.667Z,2.30
2018-02-02T08:08:29.344Z,2.40
2018-02-02T08:10:56.977Z,2.50
2018-02-02T08:13:24.637Z,2.50
2018-02-02T08:15:52.276Z,2.70
2018-02-02T08:18:19.977Z,2.80
2018-02-02T08:20:47.638Z,2.80
2018-02-02T08:23:15.291Z,2.60
2018-02-02T08:25:42.975Z,2.40
2018-02-02T08:28:10.643Z,2.50
2018-02-02T08:30:43.365Z,2.60
2018-02-02T08:33:11.059Z,2.80
2018-02-02T08:35:38.743Z,3.00
2018-02-02T08:38:06.452Z,3.20
2018-02-02T08:40:34.108Z,3.40
2018-02-02T08:43:01.787Z,3.70
2018-02-02T08:45:29.450Z,4.00
2018-02-02T08:47:57.109Z,4.20
2018-02-02T08:50:24.739Z,4.50
2018-02-02T08:52:53.148Z,4.50
2018-02-02T08:55:20.797Z,4.50
2018-02-02T08:57:48.461Z,4.50
2018-02-02T09:00:16.092Z,4.50
2018-02-02T09:02:44.489Z,4.70
2018-02-02T09:05:12.157Z,4.70
2018-02-02T09:07:39.841Z,4.60
2018-02-02T09:10:07.518Z,4.50
2018-02-02T09:12:35.157Z,4.60
2018-02-02T09:15:02.814Z,4.70
2018-02-02T09:17:30.495Z,5.00
2018-02-02T09:19:58.160Z,5.10
2018-02-02T09:22:25.826Z,5.30
2018-02-02T09:24:53.478Z,5.60
2018-02-02T09:27:20.675Z,5.80
2018-02-02T09:29:48.362Z,5.80
2018-02-02T09:32:16.047Z,5.70
2018-02-02T09:34:43.699Z,5.90
2018-02-02T09:37:11.328Z,5.90
2018-02-02T09:39:39.739Z,6.00
2018-02-02T09:42:07.379Z,5.90
2018-02-02T09:44:35.821Z,6.00
2018-02-02T09:47:03.454Z,6.00
2018-02-02T09:49:31.099Z,6.10
2018-02-02T09:51:58.764Z,6.00
2018-02-02T09:54:26.448Z,5.90
2018-02-02T09:56:54.132Z,5.90
2018-02-02T09:59:21.820Z,6.10
2018-02-02T10:01:50.233Z,6.10
2018-02-02T10:04:17.912Z,6.10
2018-02-02T10:06:45.590Z,6.10
2018-02-02T10:09:13.275Z,6.10
2018-02-02T10:11:40.958Z,6.10
2018-02-02T10:14:09.370Z,6.20
2018-02-02T10:16:37.053Z,6.20
2018-02-02T10:19:04.688Z,6.30
2018-02-02T10:21:32.315Z,6.30
2018-02-02T10:24:00.729Z,6.20
2018-02-02T10:26:28.409Z,6.20
2018-02-02T10:28:56.077Z,6.10
2018-02-02T10:31:23.752Z,6.10
2018-02-02T10:33:51.398Z,6.20
2018-02-02T10:36:19.041Z,6.10
2018-02-02T10:38:46.746Z,5.90
2018-02-02T10:41:14.386Z,5.90
2018-02-02T10:43:42.025Z,6.00
2018-02-02T10:46:09.700Z,6.00
2018-02-02T10:48:37.333Z,6.10
2018-02-02T10:51:04.988Z,6.00
2018-02-02T10:53:32.661Z,6.00
2018-02-02T10:56:00.353Z,6.20
2018-02-02T10:58:28.005Z,6.20
2018-02-02T11:01:01.614Z,6.20
2018-02-02T11:06:33.627Z,6.20
2018-02-02T11:09:01.258Z,6.20
2018-02-02T11:11:28.902Z,6.20
2018-02-02T11:13:56.578Z,6.30
2018-02-02T11:16:24.222Z,6.30
2018-02-02T11:18:51.883Z,6.40
2018-02-02T11:21:19.551Z,6.40
2018-02-02T11:23:47.205Z,6.50
2018-02-02T11:26:14.845Z,6.50
2018-02-02T11:28:44.220Z,6.50
2018-02-02T11:31:11.909Z,6.50
2018-02-02T11:33:40.316Z,6.50
2018-02-02T11:36:07.970Z,6.50
2018-02-02T11:38:35.641Z,6.40
2018-02-02T11:41:03.334Z,6.40
2018-02-02T11:43:30.968Z,6.20
2018-02-02T11:45:58.595Z,6.20
2018-02-02T11:48:27.033Z,6.20
2018-02-02T11:50:54.885Z,6.20
2018-02-02T11:53:22.521Z,6.10
2018-02-02T11:55:50.195Z,6.20
2018-02-02T11:58:17.858Z,6.00
2018-02-02T12:00:45.505Z,6.00
2018-02-02T12:03:13.186Z,6.10
2018-02-02T12:05:40.815Z,6.00
2018-02-02T12:08:09.215Z,6.00
2018-02-02T12:10:36.858Z,6.00
2018-02-02T12:13:04.505Z,6.00
2018-02-02T12:15:32.920Z,6.00
2018-02-02T12:18:00.606Z,6.00
2018-02-02T12:20:28.284Z,6.10
2018-02-02T12:23:11.612Z,6.10
2018-02-02T12:25:42.925Z,6.10
2018-02-02T12:31:26.657Z,6.10
2018-02-02T12:37:05.413Z,6.10
2018-02-02T12:39:33.090Z,6.20
2018-02-02T12:42:00.769Z,6.20
2018-02-02T12:44:28.447Z,6.30
2018-02-02T12:46:56.103Z,6.30
2018-02-02T12:49:30.535Z,6.30
2018-02-02T12:51:58.209Z,6.30
2018-02-02T12:54:25.855Z,6.20
2018-02-02T12:56:53.533Z,6.10
2018-02-02T12:59:21.189Z,6.10
2018-02-02T13:01:48.865Z,6.10
2018-02-02T13:04:17.308Z,6.10
2018-02-02T13:06:44.958Z,6.10
2018-02-02T13:09:13.650Z,6.10
2018-02-02T13:11:41.317Z,6.30
2018-02-02T13:14:08.980Z,6.40
2018-02-02T13:16:37.421Z,6.50
2018-02-02T13:22:08.692Z,6.50
2018-02-02T13:24:36.347Z,6.60
2018-02-02T13:27:03.985Z,6.50
2018-02-02T13:29:31.632Z,6.50
2018-02-02T13:32:00.024Z,6.50
2018-02-02T13:34:27.686Z,6.50
2018-02-02T13:36:55.321Z,6.40
2018-02-02T13:39:22.985Z,6.30
2018-02-02T13:41:50.649Z,6.30
2018-02-02T13:44:18.293Z,6.30
2018-02-02T13:46:45.983Z,6.40
2018-02-02T13:49:14.410Z,6.40
2018-02-02T13:51:42.049Z,6.40
2018-02-02T13:54:09.726Z,6.40
2018-02-02T13:56:37.374Z,6.40
2018-02-02T13:59:05.004Z,6.40
2018-02-02T14:01:33.428Z,6.30
2018-02-02T14:04:01.057Z,6.30
2018-02-02T14:06:29.587Z,6.20
2018-02-02T14:08:57.229Z,6.20
2018-02-02T14:11:24.863Z,6.20
2018-02-02T14:13:52.521Z,6.10
2018-02-02T14:16:20.944Z,6.10
2018-02-02T14:18:48.821Z,6.10
2018-02-02T14:21:16.482Z,6.20
2018-02-02T14:23:44.120Z,6.20
2018-02-02T14:26:11.781Z,6.30
2018-02-02T14:28:39.446Z,6.20
2018-02-02T14:31:07.096Z,6.10
2018-02-02T14:33:34.711Z,6.20
2018-02-02T14:36:02.368Z,6.20
2018-02-02T14:38:30.038Z,6.30
2018-02-02T14:40:57.677Z,6.30
2018-02-02T14:43:25.321Z,6.40
2018-02-02T14:45:52.994Z,6.40
2018-02-02T14:48:20.654Z,6.40
2018-02-02T14:50:48.330Z,6.40
2018-02-02T14:53:15.988Z,6.40
2018-02-02T14:55:43.649Z,6.50
2018-02-02T14:58:11.308Z,6.70
2018-02-02T15:00:38.960Z,7.00
2018-02-02T15:03:06.590Z,7.00
2018-02-02T15:05:34.246Z,7.20
2018-02-02T15:08:02.648Z,7.10
2018-02-02T15:10:30.305Z,7.10
2018-02-02T15:12:57.960Z,6.90
2018-02-02T15:15:25.616Z,6.70
2018-02-02T15:17:53.272Z,6.50
2018-02-02T15:20:20.953Z,6.40
2018-02-02T15:22:51.587Z,6.30
2018-02-02T15:25:19.233Z,6.30
2018-02-02T15:27:46.898Z,6.20
2018-02-02T15:30:14.567Z,6.20
2018-02-02T15:32:42.230Z,6.10
2018-02-02T15:35:09.906Z,6.10
2018-02-02T15:37:37.525Z,6.10
2018-02-02T15:40:05.912Z,6.00
2018-02-02T15:42:33.602Z,6.00
2018-02-02T15:45:01.289Z,6.00
2018-02-02T15:47:28.974Z,6.00
2018-02-02T15:49:56.609Z,5.90
2018-02-02T15:52:24.246Z,5.90
2018-02-02T15:54:51.930Z,5.90
2018-02-02T15:57:20.361Z,6.00
2018-02-02T15:59:48.764Z,6.00
2018-02-02T16:02:16.427Z,6.00
2018-02-02T16:04:44.104Z,5.90
2018-02-02T16:07:11.751Z,5.90
2018-02-02T16:09:39.416Z,5.90
2018-02-02T16:12:07.044Z,5.90
2018-02-02T16:14:35.432Z,5.80
2018-02-02T16:17:03.844Z,5.90
2018-02-02T16:19:31.494Z,5.90
2018-02-02T16:21:59.145Z,5.80
2018-02-02T16:24:26.777Z,5.80
2018-02-02T16:26:54.446Z,5.80
2018-02-02T16:29:22.846Z,5.70
2018-02-02T16:31:50.482Z,5.70
2018-02-02T16:34:18.916Z,5.70
2018-02-02T16:36:46.554Z,5.70
2018-02-02T16:39:14.209Z,5.70
2018-02-02T16:41:41.874Z,5.80
2018-02-02T16:44:09.593Z,5.90
2018-02-02T16:46:37.254Z,6.00
2018-02-02T16:49:04.901Z,6.00
2018-02-02T16:51:32.594Z,6.00
2018-02-02T16:54:01.066Z,6.20
2018-02-02T16:56:28.763Z,6.20
2018-02-02T16:58:56.435Z,6.00
2018-02-02T17:01:24.080Z,6.00
2018-02-02T17:03:52.483Z,6.10
2018-02-02T17:06:20.139Z,6.10
2018-02-02T17:08:47.782Z,6.10
2018-02-02T17:11:16.213Z,6.10
2018-02-02T17:13:44.617Z,6.10
2018-02-02T17:16:12.293Z,6.10
2018-02-02T17:18:40.698Z,6.20
2018-02-02T17:21:08.341Z,6.20
2018-02-02T17:23:36.772Z,6.20
2018-02-02T17:26:04.409Z,6.20
2018-02-02T17:28:32.093Z,6.20
2018-02-02T17:30:59.758Z,6.20
2018-02-02T17:33:27.389Z,6.20
2018-02-02T17:35:55.063Z,6.30
2018-02-02T17:38:22.731Z,6.20
2018-02-02T17:40:50.384Z,6.20
2018-02-02T17:43:18.079Z,6.20
2018-02-02T17:45:45.733Z,6.10
2018-02-02T17:48:13.670Z,6.00
2018-02-02T17:50:41.361Z,6.00
2018-02-02T17:53:09.000Z,6.00
2018-02-02T17:55:36.662Z,5.90
2018-02-02T17:58:04.330Z,5.90
2018-02-02T18:00:34.659Z,5.90
2018-02-02T18:03:02.346Z,5.80
2018-02-02T18:05:29.997Z,5.90
2018-02-02T18:07:57.680Z,6.00
2018-02-02T18:10:25.341Z,6.00
2018-02-02T18:12:52.979Z,6.00
2018-02-02T18:15:20.640Z,6.00
2018-02-02T18:17:48.327Z,5.80
2018-02-02T18:20:16.049Z,5.80
2018-02-02T18:22:43.695Z,5.70
2018-02-02T18:25:11.345Z,5.80
2018-02-02T18:27:39.003Z,5.80
2018-02-02T18:30:07.427Z,5.80
2018-02-02T18:32:35.078Z,5.80
2018-02-02T18:35:02.715Z,5.90
2018-02-02T18:37:30.381Z,5.80
2018-02-02T18:39:58.013Z,5.70
2018-02-02T18:42:26.437Z,5.70
2018-02-02T18:44:54.107Z,5.70
2018-02-02T18:47:21.747Z,5.60
2018-02-02T18:49:49.405Z,5.70
2018-02-02T18:52:17.106Z,5.60
2018-02-02T18:54:44.840Z,5.70
2018-02-02T18:57:12.480Z,5.80
2018-02-02T18:59:40.890Z,5.80
2018-02-02T19:02:08.546Z,5.80
2018-02-02T19:04:36.189Z,5.80
2018-02-02T19:07:03.862Z,5.80
2018-02-02T19:09:31.493Z,5.90
2018-02-02T19:11:59.896Z,5.90
2018-02-02T19:14:27.543Z,5.90
2018-02-02T19:16:55.941Z,5.90
2018-02-02T19:19:23.599Z,5.90
2018-02-02T19:21:51.245Z,5.80
2018-02-02T19:24:19.674Z,6.00
2018-02-02T19:26:47.314Z,5.90
2018-02-02T19:29:14.971Z,5.90
2018-02-02T19:31:42.604Z,6.00
2018-02-02T19:34:11.016Z,5.90
2018-02-02T19:36:38.690Z,5.90
2018-02-02T19:39:06.311Z,5.90
2018-02-02T19:41:35.726Z,5.70
2018-02-02T19:44:03.391Z,5.60
2018-02-02T19:46:31.070Z,5.70
2018-02-02T19:48:58.712Z,5.60
2018-02-02T19:51:26.385Z,5.70
2018-02-02T19:53:54.049Z,5.70
2018-02-02T19:56:21.691Z,5.70
2018-02-02T19:58:50.137Z,5.60
2018-02-02T20:01:17.795Z,5.60
2018-02-02T20:03:45.437Z,5.60
2018-02-02T20:06:13.118Z,5.70
2018-02-02T20:08:40.789Z,5.70
2018-02-02T20:11:08.434Z,5.70
2018-02-02T20:13:36.094Z,5.70
2018-02-02T20:16:03.786Z,5.70
2018-02-02T20:18:31.418Z,5.70
2018-02-02T20:20:59.098Z,5.70
2018-02-02T20:23:26.754Z,5.70
2018-02-02T20:25:54.412Z,5.70
2018-02-02T20:28:22.981Z,5.50
2018-02-02T20:30:50.613Z,5.50
2018-02-02T20:33:18.255Z,5.50
2018-02-02T20:35:46.697Z,5.30
2018-02-02T20:38:14.370Z,5.30
2018-02-02T20:40:42.990Z,5.40
2018-02-02T20:43:11.188Z,5.40
2018-02-02T20:45:38.841Z,5.40
2018-02-02T20:48:06.484Z,5.40
2018-02-02T20:50:34.905Z,5.30
2018-02-02T20:53:02.551Z,5.30
2018-02-02T20:55:30.206Z,5.20
2018-02-02T20:57:57.886Z,5.30
2018-02-02T21:00:25.534Z,5.20
2018-02-02T21:02:53.178Z,5.20
2018-02-02T21:05:20.837Z,5.30
2018-02-02T21:07:49.290Z,5.30
2018-02-02T21:10:16.947Z,5.30
2018-02-02T21:12:44.586Z,5.30
2018-02-02T21:15:12.245Z,5.30
2018-02-02T21:17:39.881Z,5.30
2018-02-02T21:20:07.541Z,5.30
2018-02-02T21:22:35.169Z,5.40
2018-02-02T21:25:03.642Z,5.40
2018-02-02T21:27:32.044Z,5.50
2018-02-02T21:29:59.710Z,5.50
2018-02-02T21:32:27.385Z,5.40
2018-02-02T21:34:55.020Z,5.40
2018-02-02T21:37:24.957Z,5.40
2018-02-02T21:39:54.291Z,5.40
2018-02-02T21:42:22.490Z,5.40
2018-02-02T21:44:50.238Z,5.40
2018-02-02T21:47:17.864Z,5.40
2018-02-02T21:49:45.514Z,5.40
2018-02-02T21:52:13.204Z,5.40
2018-02-02T21:54:40.839Z,5.30
2018-02-02T21:57:08.542Z,5.40
2018-02-02T21:59:36.176Z,5.30
2018-02-02T22:02:03.821Z,5.30
2018-02-02T22:04:31.502Z,5.30
2018-02-02T22:06:59.162Z,5.30
2018-02-02T22:09:26.828Z,5.20
2018-02-02T22:11:54.477Z,5.20
2018-02-02T22:14:22.149Z,5.20
2018-02-02T22:16:49.780Z,5.10
2018-02-02T22:19:18.172Z,5.10
2018-02-02T22:21:45.837Z,5.10
2018-02-02T22:24:13.521Z,5.10
2018-02-02T22:26:41.189Z,5.10
2018-02-02T22:29:08.814Z,5.00
2018-02-02T22:31:37.249Z,5.00
2018-02-02T22:34:04.893Z,4.90
2018-02-02T22:36:32.567Z,4.90
2018-02-02T22:39:00.232Z,4.80
2018-02-02T22:41:27.919Z,4.80
2018-02-02T22:43:55.569Z,4.90
2018-02-02T22:46:23.221Z,5.00
2018-02-02T22:48:50.876Z,5.00
2018-02-02T22:51:19.521Z,4.90
2018-02-02T22:53:47.187Z,4.80
2018-02-02T22:56:14.842Z,4.80
2018-02-02T22:58:42.512Z,4.80
2018-02-02T23:01:10.161Z,4.80
2018-02-02T23:03:37.797Z,4.70
2018-02-02T23:06:05.456Z,4.70
2018-02-02T23:08:33.120Z,4.70
2018-02-02T23:11:01.550Z,4.90
2018-02-02T23:13:29.209Z,4.80
2018-02-02T23:15:56.836Z,4.90
2018-02-02T23:18:25.266Z,4.80
2018-02-02T23:20:52.908Z,4.80
2018-02-02T23:23:20.556Z,4.80
2018-02-02T23:25:48.190Z,4.80
2018-02-02T23:28:16.623Z,4.90
2018-02-02T23:30:44.255Z,4.90
2018-02-02T23:33:11.935Z,5.00
2018-02-02T23:35:39.577Z,5.00
2018-02-02T23:38:07.203Z,5.00
2018-02-02T23:40:34.851Z,5.00
2018-02-02T23:43:02.473Z,5.00
2018-02-02T23:45:30.093Z,5.00
2018-02-02T23:47:57.744Z,4.90
2018-02-02T23:50:25.592Z,4.90
2018-02-02T23:52:53.213Z,4.80
2018-02-02T23:55:20.851Z,4.80
2018-02-02T23:57:49.281Z,4.70
